createdAt,value
2019-01-26T00:00:42.926Z,100278.88
2019-01-26T00:03:16.474Z,100278.73
2019-01-26T00:05:50.379Z,100282.98
2019-01-26T00:08:35.442Z,100282.95
2019-01-26T00:11:08.660Z,100297.68
2019-01-26T00:13:43.030Z,100286.22
2019-01-26T00:16:25.515Z,100272.98
2019-01-26T00:19:09.709Z,100266.17
2019-01-26T00:21:44.262Z,100270.00
2019-01-26T00:24:17.398Z,100276.29
2019-01-26T00:26:50.624Z,100278.42
2019-01-26T00:29:23.886Z,100268.31
2019-01-26T00:32:02.126Z,100271.28
2019-01-26T00:34:35.590Z,100274.39
2019-01-26T00:37:08.988Z,100245.77
2019-01-26T00:39:42.768Z,100237.49
2019-01-26T00:42:15.268Z,100243.73
2019-01-26T00:44:48.470Z,100244.11
2019-01-26T00:47:21.651Z,100236.64
2019-01-26T00:49:55.964Z,100237.77
2019-01-26T00:52:29.136Z,100244.39
2019-01-26T00:55:03.106Z,100248.98
2019-01-26T00:57:36.225Z,100249.12
2019-01-26T01:00:20.518Z,100239.33
2019-01-26T01:03:04.313Z,100241.27
2019-01-26T01:05:53.123Z,100239.27
2019-01-26T01:08:26.993Z,100235.63
2019-01-26T01:11:09.459Z,100228.45
2019-01-26T01:13:42.308Z,100237.28
2019-01-26T01:16:15.170Z,100247.16
2019-01-26T01:18:48.487Z,100245.31
2019-01-26T01:21:24.590Z,100241.14
2019-01-26T01:24:06.464Z,100226.48
2019-01-26T01:26:39.640Z,100244.88
2019-01-26T01:29:12.875Z,100243.69
2019-01-26T01:31:55.249Z,100231.38
2019-01-26T01:34:28.387Z,100231.70
2019-01-26T01:37:01.827Z,100226.83
2019-01-26T01:39:35.255Z,100225.16
2019-01-26T01:42:10.488Z,100224.59
2019-01-26T01:44:45.102Z,100230.20
2019-01-26T01:47:27.501Z,100244.04
2019-01-26T01:50:00.825Z,100245.37
2019-01-26T01:52:34.111Z,100232.61
2019-01-26T01:55:08.829Z,100224.80
2019-01-26T01:57:51.174Z,100225.70
2019-01-26T02:00:26.496Z,100217.81
2019-01-26T02:03:00.486Z,100222.41
2019-01-26T02:05:46.327Z,100214.72
2019-01-26T02:08:28.992Z,100230.63
2019-01-26T02:11:11.561Z,100227.78
2019-01-26T02:13:45.459Z,100224.97
2019-01-26T02:16:28.941Z,100238.77
2019-01-26T02:19:11.221Z,100237.96
2019-01-26T02:21:44.927Z,100237.02
2019-01-26T02:24:18.767Z,100219.28
2019-01-26T02:27:01.001Z,100226.43
2019-01-26T02:29:34.487Z,100219.73
2019-01-26T02:32:07.760Z,100222.33
2019-01-26T02:34:41.872Z,100228.69
2019-01-26T02:37:16.587Z,100231.34
2019-01-26T02:39:51.106Z,100238.88
2019-01-26T02:42:24.701Z,100226.88
2019-01-26T02:44:58.789Z,100226.63
2019-01-26T02:47:41.816Z,100219.13
2019-01-26T02:50:17.572Z,100215.63
2019-01-26T02:52:51.088Z,100206.36
2019-01-26T02:55:24.408Z,100214.63
2019-01-26T02:57:57.856Z,100216.28
2019-01-26T03:00:31.450Z,100212.95
2019-01-26T03:03:14.689Z,100209.59
2019-01-26T03:05:47.927Z,100206.94
2019-01-26T03:08:21.060Z,100201.02
2019-01-26T03:11:03.469Z,100193.13
2019-01-26T03:13:37.035Z,100198.98
2019-01-26T03:16:10.413Z,100203.09
2019-01-26T03:18:44.166Z,100202.47
2019-01-26T03:21:17.699Z,100205.93
2019-01-26T03:23:51.298Z,100215.40
2019-01-26T03:26:24.782Z,100207.83
2019-01-26T03:28:58.432Z,100202.27
2019-01-26T03:31:31.892Z,100197.41
2019-01-26T03:34:15.768Z,100199.92
2019-01-26T03:36:48.915Z,100206.37
2019-01-26T03:39:22.659Z,100205.36
2019-01-26T03:41:56.083Z,100203.91
2019-01-26T03:44:29.375Z,100214.45
2019-01-26T03:47:02.798Z,100212.92
2019-01-26T03:49:45.491Z,100208.52
2019-01-26T03:52:28.107Z,100211.78
2019-01-26T03:55:06.273Z,100210.92
2019-01-26T03:57:39.882Z,100219.13
2019-01-26T04:00:18.961Z,100228.21
2019-01-26T04:03:01.564Z,100214.80
2019-01-26T04:05:44.881Z,100214.75
2019-01-26T04:08:35.342Z,100220.50
2019-01-26T04:11:17.750Z,100216.01
2019-01-26T04:13:51.021Z,100223.64
2019-01-26T04:16:25.101Z,100214.44
2019-01-26T04:18:58.430Z,100213.11
2019-01-26T04:21:32.238Z,100212.42
2019-01-26T04:24:04.262Z,100203.53
2019-01-26T04:26:38.726Z,100208.20
2019-01-26T04:29:14.217Z,100202.20
2019-01-26T04:31:47.831Z,100201.89
2019-01-26T04:34:21.767Z,100211.48
2019-01-26T04:36:55.472Z,100205.87
2019-01-26T04:39:29.388Z,100210.45
2019-01-26T04:42:02.991Z,100207.80
2019-01-26T04:44:45.316Z,100204.07
2019-01-26T04:47:18.885Z,100206.92
2019-01-26T04:49:51.991Z,100203.95
2019-01-26T04:52:25.701Z,100206.84
2019-01-26T04:55:00.226Z,100193.46
2019-01-26T04:57:36.977Z,100187.55
2019-01-26T05:00:29.434Z,100184.11
2019-01-26T05:03:02.753Z,100172.37
2019-01-26T05:06:02.707Z,100174.45
2019-01-26T05:08:46.305Z,100168.02
2019-01-26T05:11:30.201Z,100166.50
2019-01-26T05:14:04.009Z,100167.70
2019-01-26T05:16:38.478Z,100164.53
2019-01-26T05:19:20.689Z,100156.01
2019-01-26T05:21:54.722Z,100155.37
2019-01-26T05:24:37.078Z,100155.13
2019-01-26T05:27:10.971Z,100147.41
2019-01-26T05:30:01.415Z,100146.72
2019-01-26T05:32:34.653Z,100140.30
2019-01-26T05:35:08.066Z,100142.53
2019-01-26T05:37:41.565Z,100146.12
2019-01-26T05:40:17.849Z,100146.69
2019-01-26T05:43:00.593Z,100136.84
2019-01-26T05:45:44.422Z,100126.62
2019-01-26T05:48:28.416Z,100133.55
2019-01-26T05:51:01.669Z,100133.42
2019-01-26T05:53:49.356Z,100128.20
2019-01-26T05:56:40.500Z,100128.00
2019-01-26T05:59:13.983Z,100125.34
2019-01-26T06:01:55.858Z,100120.23
2019-01-26T06:04:29.305Z,100121.24
2019-01-26T06:07:03.282Z,100116.14
2019-01-26T06:09:34.852Z,100116.45
2019-01-26T06:12:10.431Z,100112.52
2019-01-26T06:14:43.911Z,100107.02
2019-01-26T06:17:17.532Z,100104.69
2019-01-26T06:19:53.863Z,100101.92
2019-01-26T06:22:27.701Z,100105.41
2019-01-26T06:25:00.859Z,100108.11
2019-01-26T06:27:43.201Z,100110.15
2019-01-26T06:30:29.695Z,100106.78
2019-01-26T06:33:03.345Z,100106.17
2019-01-26T06:35:36.528Z,100104.53
2019-01-26T06:38:11.135Z,100103.89
2019-01-26T06:40:54.411Z,100095.69
2019-01-26T06:43:29.595Z,100101.23
2019-01-26T06:46:02.818Z,100099.59
2019-01-26T06:48:40.188Z,100097.94
2019-01-26T06:51:13.404Z,100092.83
2019-01-26T06:53:52.147Z,100086.41
2019-01-26T06:56:36.499Z,100093.52
2019-01-26T06:59:11.631Z,100097.09
2019-01-26T07:01:49.231Z,100094.13
2019-01-26T07:04:32.720Z,100088.62
2019-01-26T07:07:15.571Z,100086.20
2019-01-26T07:09:57.546Z,100087.00
2019-01-26T07:12:31.030Z,100085.27
2019-01-26T07:15:05.273Z,100076.56
2019-01-26T07:17:47.832Z,100068.67
2019-01-26T07:20:21.047Z,100063.18
2019-01-26T07:22:54.207Z,100063.66
2019-01-26T07:25:43.114Z,100052.97
2019-01-26T07:28:25.978Z,100051.88
2019-01-26T07:30:59.455Z,100045.25
2019-01-26T07:33:32.591Z,100045.02
2019-01-26T07:36:05.998Z,100044.30
2019-01-26T07:38:39.901Z,100050.09
2019-01-26T07:41:13.373Z,100049.52
2019-01-26T07:43:46.900Z,100049.92
2019-01-26T07:46:18.842Z,100053.84
2019-01-26T07:48:51.968Z,100051.68
2019-01-26T07:51:34.113Z,100042.80
2019-01-26T07:54:07.795Z,100046.27
2019-01-26T07:56:41.124Z,100049.30
2019-01-26T07:59:14.622Z,100047.94
2019-01-26T08:01:48.687Z,100047.22
2019-01-26T08:04:22.253Z,100045.77
2019-01-26T08:06:56.065Z,100039.38
2019-01-26T08:09:30.245Z,100042.41
2019-01-26T08:12:19.422Z,100046.18
2019-01-26T08:15:01.943Z,100036.87
2019-01-26T08:17:35.722Z,100032.22
2019-01-26T08:20:12.765Z,100037.21
2019-01-26T08:22:46.859Z,100033.55
2019-01-26T08:25:35.881Z,100031.45
2019-01-26T08:28:09.028Z,100028.16
2019-01-26T08:30:42.715Z,100024.30
2019-01-26T08:33:15.996Z,100021.84
2019-01-26T08:35:49.413Z,100017.46
2019-01-26T08:38:22.991Z,100011.38
2019-01-26T08:40:57.216Z,100016.27
2019-01-26T08:43:30.938Z,100020.25
2019-01-26T08:46:04.725Z,100014.88
2019-01-26T08:48:37.925Z,100005.59
2019-01-26T08:51:11.828Z,100012.14
2019-01-26T08:53:45.089Z,100010.52
2019-01-26T08:56:18.895Z,100011.48
2019-01-26T08:58:52.069Z,100015.38
2019-01-26T09:01:25.535Z,100014.85
2019-01-26T09:04:04.306Z,100020.59
2019-01-26T09:06:40.418Z,100026.64
2019-01-26T09:09:22.370Z,100017.56
2019-01-26T09:11:55.857Z,100019.38
2019-01-26T09:14:29.385Z,100014.39
2019-01-26T09:17:04.734Z,100017.58
2019-01-26T09:19:38.485Z,100015.84
2019-01-26T09:22:13.004Z,100014.93
2019-01-26T09:24:54.993Z,100018.02
2019-01-26T09:27:28.472Z,100011.17
2019-01-26T09:30:01.715Z,100009.25
2019-01-26T09:32:36.667Z,100013.62
2019-01-26T09:35:09.441Z,100014.25
2019-01-26T09:37:42.669Z,100010.79
2019-01-26T09:40:16.260Z,100014.36
2019-01-26T09:42:49.869Z,100011.28
2019-01-26T09:45:23.066Z,100014.04
2019-01-26T09:47:56.828Z,100012.01
2019-01-26T09:50:29.961Z,100008.62
2019-01-26T09:53:12.978Z,100007.81
2019-01-26T09:55:46.378Z,100012.92
2019-01-26T09:58:20.037Z,100012.50
2019-01-26T10:00:53.331Z,100014.46
2019-01-26T10:03:27.558Z,100017.02
2019-01-26T10:06:01.081Z,100016.20
2019-01-26T10:08:34.625Z,100016.70
2019-01-26T10:11:08.102Z,100019.07
2019-01-26T10:13:41.275Z,100017.53
2019-01-26T10:16:25.629Z,100004.55
2019-01-26T10:18:58.768Z,100008.83
2019-01-26T10:21:32.025Z,100009.66
2019-01-26T10:24:13.959Z,100004.55
2019-01-26T10:26:47.650Z,100002.91
2019-01-26T10:29:21.023Z,100004.76
2019-01-26T10:31:54.267Z,100002.09
2019-01-26T10:34:36.797Z,99996.25
2019-01-26T10:37:16.490Z,99994.72
2019-01-26T10:39:50.168Z,99997.79
2019-01-26T10:42:28.650Z,99994.02
2019-01-26T10:45:02.346Z,99997.78
2019-01-26T10:47:45.926Z,99992.64
2019-01-26T10:50:19.010Z,99989.30
2019-01-26T10:52:53.994Z,99986.83
2019-01-26T10:55:36.265Z,99988.73
2019-01-26T10:58:09.405Z,99985.87
2019-01-26T11:00:42.505Z,99983.63
2019-01-26T11:03:28.973Z,99978.91
2019-01-26T11:06:11.104Z,99986.58
2019-01-26T11:08:46.125Z,99979.53
2019-01-26T11:11:19.304Z,99983.43
2019-01-26T11:14:01.717Z,99980.53
2019-01-26T11:16:36.684Z,99981.14
2019-01-26T11:19:09.837Z,99976.55
2019-01-26T11:21:51.764Z,99977.13
2019-01-26T11:24:25.004Z,99980.55
2019-01-26T11:26:58.556Z,99973.88
2019-01-26T11:29:31.799Z,99980.41
2019-01-26T11:32:14.558Z,99980.41
2019-01-26T11:34:47.693Z,99977.87
2019-01-26T11:37:30.057Z,99976.30
2019-01-26T11:40:12.828Z,99971.27
2019-01-26T11:42:45.967Z,99969.31
2019-01-26T11:45:28.996Z,99961.52
2019-01-26T11:48:26.204Z,99956.16
2019-01-26T11:51:22.886Z,99939.66
2019-01-26T11:53:56.122Z,99953.59
2019-01-26T11:56:42.765Z,99946.38
2019-01-26T11:59:17.581Z,99941.01
2019-01-26T12:02:21.685Z,99937.50
2019-01-26T12:05:05.830Z,99940.12
2019-01-26T12:07:59.960Z,99933.98
2019-01-26T12:10:33.805Z,99935.23
2019-01-26T12:13:06.957Z,99927.36
2019-01-26T12:15:40.556Z,99927.20
2019-01-26T12:18:13.708Z,99928.16
2019-01-26T12:20:55.965Z,99918.72
2019-01-26T12:23:29.158Z,99919.91
2019-01-26T12:26:02.318Z,99918.32
2019-01-26T12:28:35.608Z,99914.03
2019-01-26T12:31:18.147Z,99912.28
2019-01-26T12:33:51.193Z,99909.17
2019-01-26T12:36:29.109Z,99914.80
2019-01-26T12:39:02.307Z,99908.44
2019-01-26T12:41:36.361Z,99913.09
2019-01-26T12:44:09.633Z,99915.23
2019-01-26T12:46:57.971Z,99910.50
2019-01-26T12:49:31.275Z,99915.98
2019-01-26T12:52:03.927Z,99912.59
2019-01-26T12:54:46.204Z,99911.91
2019-01-26T12:57:19.372Z,99913.85
2019-01-26T12:59:53.239Z,99917.41
2019-01-26T13:02:28.418Z,99914.66
2019-01-26T13:05:01.879Z,99915.84
2019-01-26T13:07:36.373Z,99908.67
2019-01-26T13:10:13.780Z,99913.40
2019-01-26T13:12:47.084Z,99910.80
2019-01-26T13:15:29.110Z,99904.59
2019-01-26T13:18:02.682Z,99911.48
2019-01-26T13:20:36.062Z,99904.81
2019-01-26T13:23:09.566Z,99910.08
2019-01-26T13:25:43.258Z,99901.02
2019-01-26T13:28:16.456Z,99903.11
2019-01-26T13:30:49.999Z,99898.95
2019-01-26T13:33:23.735Z,99888.89
2019-01-26T13:35:56.981Z,99893.39
2019-01-26T13:38:40.335Z,99894.34
2019-01-26T13:41:22.824Z,99893.38
2019-01-26T13:44:05.878Z,99887.55
2019-01-26T13:46:39.654Z,99893.16
2019-01-26T13:49:12.801Z,99888.42
2019-01-26T13:51:46.011Z,99886.06
2019-01-26T13:54:28.839Z,99885.91
2019-01-26T13:57:05.817Z,99882.48
2019-01-26T13:59:39.060Z,99884.88
2019-01-26T14:02:12.192Z,99875.40
2019-01-26T14:04:54.237Z,99882.06
2019-01-26T14:07:28.422Z,99876.05
2019-01-26T14:10:01.774Z,99868.27
2019-01-26T14:12:44.294Z,99867.08
2019-01-26T14:15:19.822Z,99870.21
2019-01-26T14:17:52.921Z,99874.05
2019-01-26T14:20:26.537Z,99865.14
2019-01-26T14:22:59.709Z,99872.42
2019-01-26T14:25:33.295Z,99866.05
2019-01-26T14:28:06.768Z,99855.58
2019-01-26T14:30:49.168Z,99854.77
2019-01-26T14:33:22.314Z,99860.48
2019-01-26T14:35:55.605Z,99853.81
2019-01-26T14:38:29.469Z,99848.18
2019-01-26T14:41:03.103Z,99855.08
2019-01-26T14:43:36.615Z,99849.74
2019-01-26T14:46:09.842Z,99853.21
2019-01-26T14:48:51.628Z,99847.38
2019-01-26T14:51:24.825Z,99849.44
2019-01-26T14:53:59.589Z,99843.53
2019-01-26T14:56:42.214Z,99837.97
2019-01-26T14:59:24.583Z,99832.97
2019-01-26T15:01:58.735Z,99835.45
2019-01-26T15:04:40.935Z,99838.20
2019-01-26T15:07:14.079Z,99834.92
2019-01-26T15:09:47.190Z,99829.59
2019-01-26T15:12:19.209Z,99830.12
2019-01-26T15:15:02.327Z,99827.80
2019-01-26T15:17:44.762Z,99825.13
2019-01-26T15:20:21.073Z,99830.05
2019-01-26T15:22:54.240Z,99820.48
2019-01-26T15:25:27.376Z,99828.25
2019-01-26T15:28:10.528Z,99821.13
2019-01-26T15:30:44.239Z,99816.41
2019-01-26T15:33:18.101Z,99822.39
2019-01-26T15:35:51.564Z,99816.98
2019-01-26T15:38:25.001Z,99812.41
2019-01-26T15:41:07.713Z,99812.98
2019-01-26T15:43:49.521Z,99810.77
2019-01-26T15:46:22.990Z,99804.03
2019-01-26T15:48:56.117Z,99801.67
2019-01-26T15:51:38.250Z,99807.08
2019-01-26T15:54:11.664Z,99811.43
2019-01-26T15:56:45.474Z,99801.59
2019-01-26T15:59:20.855Z,99804.49
2019-01-26T16:01:54.056Z,99805.06
2019-01-26T16:04:28.645Z,99804.19
2019-01-26T16:07:12.530Z,99802.17
2019-01-26T16:09:46.023Z,99803.89
2019-01-26T16:12:25.015Z,99799.82
2019-01-26T16:15:09.988Z,99792.56
2019-01-26T16:17:43.868Z,99797.45
2019-01-26T16:20:20.440Z,99793.16
2019-01-26T16:22:53.960Z,99789.59
2019-01-26T16:25:27.696Z,99793.75
2019-01-26T16:28:00.956Z,99784.62
2019-01-26T16:30:34.610Z,99792.35
2019-01-26T16:33:08.440Z,99790.18
2019-01-26T16:35:41.713Z,99785.95
2019-01-26T16:38:26.339Z,99779.95
2019-01-26T16:40:58.090Z,99784.92
2019-01-26T16:43:31.536Z,99779.28
2019-01-26T16:46:05.094Z,99778.48
2019-01-26T16:48:38.936Z,99777.61
2019-01-26T16:51:12.186Z,99768.55
2019-01-26T16:53:46.284Z,99769.88
2019-01-26T16:56:20.382Z,99765.88
2019-01-26T16:58:53.846Z,99767.67
2019-01-26T17:01:36.622Z,99755.52
2019-01-26T17:04:19.418Z,99764.27
2019-01-26T17:06:53.010Z,99762.73
2019-01-26T17:09:25.463Z,99762.13
2019-01-26T17:11:58.994Z,99754.95
2019-01-26T17:14:30.979Z,99758.66
2019-01-26T17:17:04.235Z,99750.36
2019-01-26T17:19:37.738Z,99749.75
2019-01-26T17:22:11.628Z,99750.52
2019-01-26T17:24:45.181Z,99744.88
2019-01-26T17:27:20.943Z,99740.01
2019-01-26T17:29:55.606Z,99741.41
2019-01-26T17:32:30.151Z,99738.67
2019-01-26T17:35:11.887Z,99737.48
2019-01-26T17:37:46.626Z,99736.97
2019-01-26T17:40:21.503Z,99734.23
2019-01-26T17:43:04.397Z,99733.05
2019-01-26T17:45:46.927Z,99728.44
2019-01-26T17:48:21.457Z,99724.83
2019-01-26T17:51:04.520Z,99721.28
2019-01-26T17:53:37.636Z,99718.97
2019-01-26T17:56:19.988Z,99718.08
2019-01-26T17:58:53.469Z,99715.43
2019-01-26T18:01:26.591Z,99704.77
2019-01-26T18:04:09.716Z,99703.58
2019-01-26T18:06:43.527Z,99702.56
2019-01-26T18:09:18.595Z,99699.14
2019-01-26T18:11:52.140Z,99688.70
2019-01-26T18:14:26.622Z,99687.91
2019-01-26T18:17:00.338Z,99687.07
2019-01-26T18:19:42.546Z,99673.08
2019-01-26T18:22:16.041Z,99668.04
2019-01-26T18:24:49.278Z,99665.03
2019-01-26T18:27:22.780Z,99666.14
2019-01-26T18:30:05.576Z,99668.34
2019-01-26T18:32:47.449Z,99666.51
2019-01-26T18:35:22.239Z,99660.97
2019-01-26T18:37:58.479Z,99658.30
2019-01-26T18:40:41.012Z,99646.15
2019-01-26T18:43:14.128Z,99647.64
2019-01-26T18:45:47.762Z,99652.91
2019-01-26T18:48:21.945Z,99644.08
2019-01-26T18:50:56.271Z,99641.14
2019-01-26T18:53:29.882Z,99641.57
2019-01-26T18:56:03.389Z,99632.84
2019-01-26T18:58:36.948Z,99625.88
2019-01-26T19:01:10.263Z,99635.21
2019-01-26T19:04:08.965Z,99630.25
2019-01-26T19:06:51.387Z,99626.41
2019-01-26T19:09:25.546Z,99631.07
2019-01-26T19:11:57.292Z,99629.06
2019-01-26T19:14:39.903Z,99608.95
2019-01-26T19:17:13.961Z,99617.84
2019-01-26T19:19:56.404Z,99610.48
2019-01-26T19:22:30.550Z,99610.88
2019-01-26T19:25:15.227Z,99597.63
2019-01-26T19:27:49.345Z,99601.19
2019-01-26T19:30:22.930Z,99589.20
2019-01-26T19:32:56.089Z,99585.36
2019-01-26T19:35:30.054Z,99581.97
2019-01-26T19:38:05.011Z,99578.70
2019-01-26T19:40:38.682Z,99574.70
2019-01-26T19:43:11.965Z,99570.14
2019-01-26T19:45:45.115Z,99571.47
2019-01-26T19:48:27.223Z,99560.66
2019-01-26T19:51:02.716Z,99559.19
2019-01-26T19:53:36.049Z,99553.09
2019-01-26T19:56:21.158Z,99540.84
2019-01-26T19:59:04.732Z,99538.61
2019-01-26T20:01:43.277Z,99523.09
2019-01-26T20:04:16.772Z,99520.43
2019-01-26T20:06:50.798Z,99519.09
2019-01-26T20:09:25.901Z,99505.18
2019-01-26T20:11:59.102Z,99500.45
2019-01-26T20:14:33.396Z,99491.86
2019-01-26T20:17:15.731Z,99492.77
2019-01-26T20:19:49.062Z,99495.80
2019-01-26T20:22:22.577Z,99491.43
2019-01-26T20:24:55.770Z,99490.33
2019-01-26T20:27:41.998Z,99482.70
2019-01-26T20:30:19.652Z,99482.87
2019-01-26T20:32:53.508Z,99471.69
2019-01-26T20:35:37.081Z,99469.69
2019-01-26T20:38:19.793Z,99468.92
2019-01-26T20:40:53.748Z,99464.53
2019-01-26T20:43:29.645Z,99460.47
2019-01-26T20:46:03.823Z,99463.20
2019-01-26T20:48:37.038Z,99455.48
2019-01-26T20:51:11.209Z,99457.64
2019-01-26T20:53:44.717Z,99447.79
2019-01-26T20:56:18.873Z,99442.03
2019-01-26T20:58:51.527Z,99444.69
2019-01-26T21:01:25.679Z,99433.21
2019-01-26T21:04:04.132Z,99429.52
2019-01-26T21:06:43.393Z,99424.55
2019-01-26T21:09:17.302Z,99414.06
2019-01-26T21:11:50.443Z,99415.40
2019-01-26T21:14:23.819Z,99402.08
2019-01-26T21:16:58.395Z,99406.34
2019-01-26T21:19:31.809Z,99394.66
2019-01-26T21:22:05.260Z,99402.08
2019-01-26T21:24:38.318Z,99394.89
2019-01-26T21:27:21.131Z,99391.55
2019-01-26T21:30:05.408Z,99383.83
2019-01-26T21:32:43.421Z,99379.10
2019-01-26T21:35:26.758Z,99380.26
2019-01-26T21:38:00.605Z,99374.87
2019-01-26T21:40:34.213Z,99374.07
2019-01-26T21:43:08.377Z,99359.13
2019-01-26T21:45:50.898Z,99362.38
2019-01-26T21:48:24.325Z,99363.42
2019-01-26T21:50:57.621Z,99353.20
2019-01-26T21:53:31.249Z,99345.81
2019-01-26T21:56:04.855Z,99341.08
2019-01-26T21:58:38.450Z,99341.08
2019-01-26T22:01:12.407Z,99342.50
2019-01-26T22:03:45.908Z,99339.89
2019-01-26T22:06:19.485Z,99332.73
2019-01-26T22:08:53.102Z,99329.77
2019-01-26T22:11:26.463Z,99331.91
2019-01-26T22:14:03.574Z,99327.11
2019-01-26T22:16:37.225Z,99323.47
2019-01-26T22:19:10.422Z,99318.64
2019-01-26T22:21:46.141Z,99317.66
2019-01-26T22:24:19.502Z,99313.91
2019-01-26T22:26:53.011Z,99309.38
2019-01-26T22:29:31.237Z,99304.58
2019-01-26T22:32:12.175Z,99299.07
2019-01-26T22:34:43.611Z,99299.55
2019-01-26T22:37:18.957Z,99294.52
2019-01-26T22:39:54.126Z,99282.29
2019-01-26T22:42:28.290Z,99286.79
2019-01-26T22:45:01.478Z,99272.31
2019-01-26T22:47:35.597Z,99272.85
2019-01-26T22:50:12.017Z,99271.04
2019-01-26T22:52:46.196Z,99263.29
2019-01-26T22:55:19.860Z,99257.11
2019-01-26T22:57:53.992Z,99261.95
2019-01-26T23:00:54.989Z,99254.20
2019-01-26T23:03:47.808Z,99248.34
2019-01-26T23:06:46.304Z,99239.55
2019-01-26T23:09:50.157Z,99229.51
2019-01-26T23:12:57.138Z,99221.02
2019-01-26T23:16:11.314Z,99214.00
2019-01-26T23:19:22.721Z,99204.09
2019-01-26T23:22:44.604Z,99200.05
2019-01-26T23:25:58.954Z,99192.87
2019-01-26T23:29:07.028Z,99180.52
2019-01-26T23:31:40.138Z,99184.11
2019-01-26T23:34:13.636Z,99180.41
2019-01-26T23:36:47.112Z,99172.42
2019-01-26T23:39:20.603Z,99173.52
2019-01-26T23:41:56.129Z,99164.72
2019-01-26T23:44:40.990Z,99157.88
2019-01-26T23:47:15.538Z,99157.02
2019-01-26T23:49:51.957Z,99149.83
2019-01-26T23:52:33.790Z,99136.85
2019-01-26T23:55:23.084Z,99145.33
2019-01-26T23:57:57.238Z,99141.64
